sensor_id;sensor_type;location;lat;lon;timestamp;P1;durP1;ratioP1;P2;durP2;ratioP2
27921;SDS011;15261;50.356;10.340;2022-09-09T09:13:47;6.28;;;2.20;;
27921;SDS011;15261;50.356;10.340;2022-09-09T09:18:44;7.15;;;3.47;;
27921;SDS011;15261;50.356;10.340;2022-09-09T09:21:12;8.70;;;2.40;;
27921;SDS011;15261;50.356;10.340;2022-09-09T09:39:33;5.20;;;2.05;;
27921;SDS011;15261;50.356;10.340;2022-09-09T09:42:11;3.58;;;1.63;;
27921;SDS011;15261;50.356;10.340;2022-09-09T09:44:41;7.53;;;2.17;;
27921;SDS011;15261;50.356;10.340;2022-09-09T09:47:08;4.93;;;2.00;;
27921;SDS011;15261;50.356;10.340;2022-09-09T09:53:03;7.63;;;1.90;;
27921;SDS011;15261;50.356;10.340;2022-09-09T10:16:49;16.70;;;2.65;;
27921;SDS011;15261;50.356;10.340;2022-09-09T10:22:52;6.90;;;1.60;;
27921;SDS011;15261;50.356;10.340;2022-09-09T10:29:23;6.32;;;1.50;;
27921;SDS011;15261;50.356;10.340;2022-09-09T10:35:33;6.55;;;2.05;;
27921;SDS011;15261;50.356;10.340;2022-09-09T10:44:17;4.88;;;1.65;;
27921;SDS011;15261;50.356;10.340;2022-09-09T10:55:52;5.03;;;1.52;;
27921;SDS011;15261;50.356;10.340;2022-09-09T11:01:21;6.47;;;1.70;;
27921;SDS011;15261;50.356;10.340;2022-09-09T11:03:59;6.32;;;2.10;;
27921;SDS011;15261;50.356;10.340;2022-09-09T11:06:32;5.38;;;1.80;;
27921;SDS011;15261;50.356;10.340;2022-09-09T11:09:11;4.47;;;1.83;;
27921;SDS011;15261;50.356;10.340;2022-09-09T11:11:45;5.60;;;1.52;;
27921;SDS011;15261;50.356;10.340;2022-09-09T11:17:40;6.30;;;1.50;;
27921;SDS011;15261;50.356;10.340;2022-09-09T11:20:13;3.65;;;1.58;;
27921;SDS011;15261;50.356;10.340;2022-09-09T11:40:41;5.07;;;1.85;;
27921;SDS011;15261;50.356;10.340;2022-09-09T11:45:56;5.72;;;1.85;;
27921;SDS011;15261;50.356;10.340;2022-09-09T11:51:31;4.50;;;1.63;;
27921;SDS011;15261;50.356;10.340;2022-09-09T11:53:59;3.92;;;1.40;;
27921;SDS011;15261;50.356;10.340;2022-09-09T11:56:28;3.10;;;1.55;;
27921;SDS011;15261;50.356;10.340;2022-09-09T12:04:10;2.78;;;1.63;;
27921;SDS011;15261;50.356;10.340;2022-09-09T12:06:44;3.58;;;1.60;;
27921;SDS011;15261;50.356;10.340;2022-09-09T12:12:44;5.38;;;1.70;;
27921;SDS011;15261;50.356;10.340;2022-09-09T12:24:42;3.88;;;1.40;;
27921;SDS011;15261;50.356;10.340;2022-09-09T12:27:34;4.72;;;1.50;;
27921;SDS011;15261;50.356;10.340;2022-09-09T12:30:19;4.93;;;1.35;;
27921;SDS011;15261;50.356;10.340;2022-09-09T12:32:46;5.03;;;1.23;;
27921;SDS011;15261;50.356;10.340;2022-09-09T12:35:19;9.63;;;2.03;;
27921;SDS011;15261;50.356;10.340;2022-09-09T12:37:52;5.78;;;1.38;;
27921;SDS011;15261;50.356;10.340;2022-09-09T12:40:32;8.02;;;1.90;;
27921;SDS011;15261;50.356;10.340;2022-09-09T12:43:00;4.93;;;1.58;;
27921;SDS011;15261;50.356;10.340;2022-09-09T12:45:53;3.35;;;1.30;;
27921;SDS011;15261;50.356;10.340;2022-09-09T12:48:35;2.42;;;1.23;;
27921;SDS011;15261;50.356;10.340;2022-09-09T12:51:05;2.30;;;1.15;;
27921;SDS011;15261;50.356;10.340;2022-09-09T12:53:41;3.78;;;1.17;;
27921;SDS011;15261;50.356;10.340;2022-09-09T12:56:07;3.80;;;1.10;;
27921;SDS011;15261;50.356;10.340;2022-09-09T13:01:20;3.00;;;1.10;;
27921;SDS011;15261;50.356;10.340;2022-09-09T13:03:51;3.80;;;1.48;;
27921;SDS011;15261;50.356;10.340;2022-09-09T13:06:27;4.38;;;1.30;;
27921;SDS011;15261;50.356;10.340;2022-09-09T13:11:30;3.17;;;1.38;;
27921;SDS011;15261;50.356;10.340;2022-09-09T13:14:01;3.10;;;1.27;;
27921;SDS011;15261;50.356;10.340;2022-09-09T13:16:30;3.55;;;1.13;;
27921;SDS011;15261;50.356;10.340;2022-09-09T13:21:47;5.80;;;1.23;;
27921;SDS011;15261;50.356;10.340;2022-09-09T13:27:00;2.47;;;1.13;;
27921;SDS011;15261;50.356;10.340;2022-09-09T13:29:28;5.55;;;1.45;;
27921;SDS011;15261;50.356;10.340;2022-09-09T13:35:00;3.78;;;1.30;;
27921;SDS011;15261;50.356;10.340;2022-09-09T13:37:35;2.40;;;1.10;;
27921;SDS011;15261;50.356;10.340;2022-09-09T13:40:04;3.38;;;1.30;;
27921;SDS011;15261;50.356;10.340;2022-09-09T13:42:39;4.63;;;1.45;;
27921;SDS011;15261;50.356;10.340;2022-09-09T13:45:14;14.98;;;1.80;;
27921;SDS011;15261;50.356;10.340;2022-09-09T13:47:58;7.60;;;1.70;;
27921;SDS011;15261;50.356;10.340;2022-09-09T13:50:34;2.80;;;1.15;;
27921;SDS011;15261;50.356;10.340;2022-09-09T13:53:00;1.65;;;1.00;;
27921;SDS011;15261;50.356;10.340;2022-09-09T13:55:27;2.55;;;1.10;;
27921;SDS011;15261;50.356;10.340;2022-09-09T13:57:57;4.40;;;1.42;;
27921;SDS011;15261;50.356;10.340;2022-09-09T14:00:25;1.77;;;0.90;;
27921;SDS011;15261;50.356;10.340;2022-09-09T14:02:54;2.33;;;1.15;;
27921;SDS011;15261;50.356;10.340;2022-09-09T14:05:20;4.65;;;0.90;;
27921;SDS011;15261;50.356;10.340;2022-09-09T14:07:47;4.57;;;1.15;;
27921;SDS011;15261;50.356;10.340;2022-09-09T14:10:13;7.13;;;1.00;;
27921;SDS011;15261;50.356;10.340;2022-09-09T14:12:39;2.72;;;1.05;;
27921;SDS011;15261;50.356;10.340;2022-09-09T14:15:05;4.93;;;1.20;;
27921;SDS011;15261;50.356;10.340;2022-09-09T14:17:32;2.40;;;0.93;;
27921;SDS011;15261;50.356;10.340;2022-09-09T14:20:07;3.13;;;1.20;;
27921;SDS011;15261;50.356;10.340;2022-09-09T14:22:35;1.40;;;0.80;;
27921;SDS011;15261;50.356;10.340;2022-09-09T14:25:01;12.93;;;2.30;;
27921;SDS011;15261;50.356;10.340;2022-09-09T14:27:28;2.85;;;1.20;;
27921;SDS011;15261;50.356;10.340;2022-09-09T14:33:16;4.68;;;1.38;;
27921;SDS011;15261;50.356;10.340;2022-09-09T14:35:42;2.55;;;1.25;;
27921;SDS011;15261;50.356;10.340;2022-09-09T14:38:08;3.65;;;1.40;;
27921;SDS011;15261;50.356;10.340;2022-09-09T14:40:34;3.47;;;1.42;;
27921;SDS011;15261;50.356;10.340;2022-09-09T14:45:46;2.65;;;1.10;;
27921;SDS011;15261;50.356;10.340;2022-09-09T14:48:13;2.83;;;1.25;;
27921;SDS011;15261;50.356;10.340;2022-09-09T14:50:39;1.58;;;1.17;;
27921;SDS011;15261;50.356;10.340;2022-09-09T14:53:06;2.50;;;0.90;;
27921;SDS011;15261;50.356;10.340;2022-09-09T14:55:32;3.33;;;0.90;;
27921;SDS011;15261;50.356;10.340;2022-09-09T14:57:58;5.97;;;1.25;;
27921;SDS011;15261;50.356;10.340;2022-09-09T15:00:23;1.48;;;0.93;;
27921;SDS011;15261;50.356;10.340;2022-09-09T15:02:51;6.60;;;1.30;;
27921;SDS011;15261;50.356;10.340;2022-09-09T15:05:21;3.13;;;1.00;;
27921;SDS011;15261;50.356;10.340;2022-09-09T15:07:47;4.13;;;1.05;;
27921;SDS011;15261;50.356;10.340;2022-09-09T15:10:13;1.83;;;1.05;;
27921;SDS011;15261;50.356;10.340;2022-09-09T15:12:39;1.20;;;0.85;;
27921;SDS011;15261;50.356;10.340;2022-09-09T15:15:06;3.50;;;1.20;;
27921;SDS011;15261;50.356;10.340;2022-09-09T15:17:32;1.45;;;0.90;;
27921;SDS011;15261;50.356;10.340;2022-09-09T15:19:58;3.10;;;1.02;;
27921;SDS011;15261;50.356;10.340;2022-09-09T15:22:23;2.30;;;1.23;;
27921;SDS011;15261;50.356;10.340;2022-09-09T15:24:49;2.30;;;1.00;;
27921;SDS011;15261;50.356;10.340;2022-09-09T15:27:15;3.47;;;1.10;;
27921;SDS011;15261;50.356;10.340;2022-09-09T15:29:41;3.72;;;1.20;;
27921;SDS011;15261;50.356;10.340;2022-09-09T15:32:07;2.05;;;1.00;;
27921;SDS011;15261;50.356;10.340;2022-09-09T15:34:33;2.03;;;0.93;;
27921;SDS011;15261;50.356;10.340;2022-09-09T15:36:58;6.88;;;1.60;;
27921;SDS011;15261;50.356;10.340;2022-09-09T15:39:25;3.55;;;1.10;;
27921;SDS011;15261;50.356;10.340;2022-09-09T15:41:51;3.20;;;1.00;;
27921;SDS011;15261;50.356;10.340;2022-09-09T15:44:17;8.43;;;1.70;;
27921;SDS011;15261;50.356;10.340;2022-09-09T15:46:48;5.53;;;1.30;;
27921;SDS011;15261;50.356;10.340;2022-09-09T15:49:16;2.63;;;1.13;;
27921;SDS011;15261;50.356;10.340;2022-09-09T15:51:44;3.10;;;1.20;;
27921;SDS011;15261;50.356;10.340;2022-09-09T15:54:15;2.05;;;1.00;;
27921;SDS011;15261;50.356;10.340;2022-09-09T15:56:42;2.15;;;0.95;;
27921;SDS011;15261;50.356;10.340;2022-09-09T15:59:09;2.22;;;0.90;;
27921;SDS011;15261;50.356;10.340;2022-09-09T16:01:35;1.60;;;1.10;;
27921;SDS011;15261;50.356;10.340;2022-09-09T16:04:00;3.33;;;1.10;;
27921;SDS011;15261;50.356;10.340;2022-09-09T16:06:27;2.60;;;1.13;;
27921;SDS011;15261;50.356;10.340;2022-09-09T16:08:54;1.17;;;1.02;;
27921;SDS011;15261;50.356;10.340;2022-09-09T16:11:28;1.92;;;0.90;;
27921;SDS011;15261;50.356;10.340;2022-09-09T16:13:56;2.95;;;1.10;;
27921;SDS011;15261;50.356;10.340;2022-09-09T16:16:23;1.75;;;1.10;;
27921;SDS011;15261;50.356;10.340;2022-09-09T16:18:52;2.67;;;1.00;;
27921;SDS011;15261;50.356;10.340;2022-09-09T16:21:23;3.38;;;1.17;;
27921;SDS011;15261;50.356;10.340;2022-09-09T16:24:02;3.22;;;1.38;;
27921;SDS011;15261;50.356;10.340;2022-09-09T16:26:29;3.05;;;1.10;;
27921;SDS011;15261;50.356;10.340;2022-09-09T16:28:56;2.13;;;0.85;;
27921;SDS011;15261;50.356;10.340;2022-09-09T16:31:24;3.00;;;1.20;;
27921;SDS011;15261;50.356;10.340;2022-09-09T16:33:50;4.07;;;1.20;;
27921;SDS011;15261;50.356;10.340;2022-09-09T16:36:17;2.90;;;1.15;;
27921;SDS011;15261;50.356;10.340;2022-09-09T16:38:44;2.42;;;1.27;;
27921;SDS011;15261;50.356;10.340;2022-09-09T16:41:10;2.90;;;1.38;;
27921;SDS011;15261;50.356;10.340;2022-09-09T16:43:37;2.47;;;1.23;;
27921;SDS011;15261;50.356;10.340;2022-09-09T16:46:15;2.65;;;1.15;;
27921;SDS011;15261;50.356;10.340;2022-09-09T16:48:43;2.58;;;1.02;;
27921;SDS011;15261;50.356;10.340;2022-09-09T16:51:14;2.85;;;1.20;;
27921;SDS011;15261;50.356;10.340;2022-09-09T16:53:48;4.72;;;1.30;;
27921;SDS011;15261;50.356;10.340;2022-09-09T16:56:15;2.47;;;1.33;;
27921;SDS011;15261;50.356;10.340;2022-09-09T16:58:43;3.45;;;1.10;;
27921;SDS011;15261;50.356;10.340;2022-09-09T17:01:14;3.72;;;1.00;;
27921;SDS011;15261;50.356;10.340;2022-09-09T17:03:39;2.08;;;1.10;;
27921;SDS011;15261;50.356;10.340;2022-09-09T17:06:12;7.70;;;1.50;;
27921;SDS011;15261;50.356;10.340;2022-09-09T17:08:39;2.13;;;1.08;;
27921;SDS011;15261;50.356;10.340;2022-09-09T17:11:15;3.45;;;1.45;;
27921;SDS011;15261;50.356;10.340;2022-09-09T17:13:43;5.10;;;1.35;;
27921;SDS011;15261;50.356;10.340;2022-09-09T17:16:10;3.70;;;1.17;;
27921;SDS011;15261;50.356;10.340;2022-09-09T17:18:36;4.38;;;1.50;;
27921;SDS011;15261;50.356;10.340;2022-09-09T17:21:03;6.63;;;1.17;;
27921;SDS011;15261;50.356;10.340;2022-09-09T17:23:34;3.17;;;1.35;;
27921;SDS011;15261;50.356;10.340;2022-09-09T17:26:03;3.22;;;1.17;;
27921;SDS011;15261;50.356;10.340;2022-09-09T17:28:30;2.85;;;1.20;;
27921;SDS011;15261;50.356;10.340;2022-09-09T17:30:56;2.58;;;1.15;;
27921;SDS011;15261;50.356;10.340;2022-09-09T17:33:25;6.32;;;1.50;;
27921;SDS011;15261;50.356;10.340;2022-09-09T17:35:52;3.60;;;1.10;;
27921;SDS011;15261;50.356;10.340;2022-09-09T17:38:18;3.95;;;1.40;;
27921;SDS011;15261;50.356;10.340;2022-09-09T17:40:43;3.75;;;1.50;;
27921;SDS011;15261;50.356;10.340;2022-09-09T17:43:09;2.70;;;1.30;;
27921;SDS011;15261;50.356;10.340;2022-09-09T17:45:35;2.83;;;1.30;;
27921;SDS011;15261;50.356;10.340;2022-09-09T17:48:00;3.80;;;1.58;;
27921;SDS011;15261;50.356;10.340;2022-09-09T17:50:27;1.88;;;1.23;;
27921;SDS011;15261;50.356;10.340;2022-09-09T17:52:53;2.58;;;1.50;;
27921;SDS011;15261;50.356;10.340;2022-09-09T17:55:18;3.53;;;1.55;;
27921;SDS011;15261;50.356;10.340;2022-09-09T17:57:45;3.03;;;1.58;;
27921;SDS011;15261;50.356;10.340;2022-09-09T18:00:11;2.50;;;1.13;;
27921;SDS011;15261;50.356;10.340;2022-09-09T18:02:37;2.35;;;1.23;;
27921;SDS011;15261;50.356;10.340;2022-09-09T18:05:03;4.13;;;1.42;;
27921;SDS011;15261;50.356;10.340;2022-09-09T18:07:28;4.80;;;1.40;;
27921;SDS011;15261;50.356;10.340;2022-09-09T18:09:54;2.28;;;1.42;;
27921;SDS011;15261;50.356;10.340;2022-09-09T18:12:19;2.85;;;1.30;;
27921;SDS011;15261;50.356;10.340;2022-09-09T18:14:45;2.80;;;1.20;;
27921;SDS011;15261;50.356;10.340;2022-09-09T18:17:12;2.38;;;1.13;;
27921;SDS011;15261;50.356;10.340;2022-09-09T18:19:38;2.20;;;1.00;;
27921;SDS011;15261;50.356;10.340;2022-09-09T18:22:04;1.95;;;1.05;;
27921;SDS011;15261;50.356;10.340;2022-09-09T18:24:30;1.73;;;1.00;;
27921;SDS011;15261;50.356;10.340;2022-09-09T18:26:57;2.50;;;1.00;;
27921;SDS011;15261;50.356;10.340;2022-09-09T18:29:23;2.70;;;0.98;;
27921;SDS011;15261;50.356;10.340;2022-09-09T18:31:50;3.00;;;1.05;;
27921;SDS011;15261;50.356;10.340;2022-09-09T18:34:17;3.85;;;1.05;;
27921;SDS011;15261;50.356;10.340;2022-09-09T18:36:44;1.52;;;1.05;;
27921;SDS011;15261;50.356;10.340;2022-09-09T18:42:33;4.25;;;1.20;;
27921;SDS011;15261;50.356;10.340;2022-09-09T18:44:59;5.13;;;1.30;;
27921;SDS011;15261;50.356;10.340;2022-09-09T18:47:24;1.67;;;1.10;;
27921;SDS011;15261;50.356;10.340;2022-09-09T18:49:50;3.38;;;1.10;;
27921;SDS011;15261;50.356;10.340;2022-09-09T18:52:16;1.88;;;1.27;;
27921;SDS011;15261;50.356;10.340;2022-09-09T18:54:49;3.85;;;2.35;;
27921;SDS011;15261;50.356;10.340;2022-09-09T18:57:15;6.57;;;4.22;;
27921;SDS011;15261;50.356;10.340;2022-09-09T18:59:42;4.25;;;3.40;;
27921;SDS011;15261;50.356;10.340;2022-09-09T19:02:08;3.95;;;3.08;;
27921;SDS011;15261;50.356;10.340;2022-09-09T19:04:36;4.55;;;2.38;;
27921;SDS011;15261;50.356;10.340;2022-09-09T19:07:02;2.65;;;1.90;;
27921;SDS011;15261;50.356;10.340;2022-09-09T19:12:50;4.00;;;1.65;;
27921;SDS011;15261;50.356;10.340;2022-09-09T19:15:15;0.88;;;0.85;;
27921;SDS011;15261;50.356;10.340;2022-09-09T19:17:41;3.13;;;1.55;;
27921;SDS011;15261;50.356;10.340;2022-09-09T19:20:07;1.50;;;0.90;;
27921;SDS011;15261;50.356;10.340;2022-09-09T19:22:33;6.55;;;1.40;;
27921;SDS011;15261;50.356;10.340;2022-09-09T19:25:17;3.28;;;1.02;;
27921;SDS011;15261;50.356;10.340;2022-09-09T19:27:43;5.47;;;1.10;;
27921;SDS011;15261;50.356;10.340;2022-09-09T19:30:15;3.78;;;1.35;;
27921;SDS011;15261;50.356;10.340;2022-09-09T19:32:40;1.65;;;1.00;;
27921;SDS011;15261;50.356;10.340;2022-09-09T19:35:07;2.30;;;1.05;;
27921;SDS011;15261;50.356;10.340;2022-09-09T19:37:33;1.58;;;1.13;;
27921;SDS011;15261;50.356;10.340;2022-09-09T19:39:59;5.82;;;1.35;;
27921;SDS011;15261;50.356;10.340;2022-09-09T19:45:14;2.50;;;1.10;;
27921;SDS011;15261;50.356;10.340;2022-09-09T19:50:33;2.47;;;1.17;;
27921;SDS011;15261;50.356;10.340;2022-09-09T19:58:40;2.78;;;1.40;;
27921;SDS011;15261;50.356;10.340;2022-09-09T20:01:40;3.90;;;1.30;;
27921;SDS011;15261;50.356;10.340;2022-09-09T20:04:17;3.83;;;1.10;;
27921;SDS011;15261;50.356;10.340;2022-09-09T20:06:44;3.78;;;1.13;;
27921;SDS011;15261;50.356;10.340;2022-09-09T20:09:20;2.58;;;1.10;;
27921;SDS011;15261;50.356;10.340;2022-09-09T20:11:58;2.33;;;0.98;;
27921;SDS011;15261;50.356;10.340;2022-09-09T20:14:32;3.17;;;1.30;;
27921;SDS011;15261;50.356;10.340;2022-09-09T20:17:00;3.60;;;1.20;;
27921;SDS011;15261;50.356;10.340;2022-09-09T20:22:06;1.58;;;1.23;;
27921;SDS011;15261;50.356;10.340;2022-09-09T20:27:32;1.80;;;1.30;;
27921;SDS011;15261;50.356;10.340;2022-09-09T20:29:58;1.90;;;1.30;;
27921;SDS011;15261;50.356;10.340;2022-09-09T20:32:23;3.78;;;1.30;;
27921;SDS011;15261;50.356;10.340;2022-09-09T20:34:51;3.65;;;1.33;;
27921;SDS011;15261;50.356;10.340;2022-09-09T20:37:42;3.88;;;1.20;;
27921;SDS011;15261;50.356;10.340;2022-09-09T20:40:20;4.38;;;1.42;;
27921;SDS011;15261;50.356;10.340;2022-09-09T20:42:50;3.13;;;1.13;;
27921;SDS011;15261;50.356;10.340;2022-09-09T20:45:16;5.10;;;1.50;;
27921;SDS011;15261;50.356;10.340;2022-09-09T20:47:42;3.55;;;1.40;;
27921;SDS011;15261;50.356;10.340;2022-09-09T20:50:08;5.32;;;1.20;;
27921;SDS011;15261;50.356;10.340;2022-09-09T20:52:34;3.90;;;1.30;;
27921;SDS011;15261;50.356;10.340;2022-09-09T20:55:00;3.70;;;1.30;;
27921;SDS011;15261;50.356;10.340;2022-09-09T20:57:25;4.40;;;1.33;;
27921;SDS011;15261;50.356;10.340;2022-09-09T20:59:51;4.43;;;1.23;;
27921;SDS011;15261;50.356;10.340;2022-09-09T21:02:16;3.72;;;1.23;;
27921;SDS011;15261;50.356;10.340;2022-09-09T21:04:42;3.95;;;1.33;;
27921;SDS011;15261;50.356;10.340;2022-09-09T21:07:09;2.20;;;1.10;;
27921;SDS011;15261;50.356;10.340;2022-09-09T21:09:34;4.35;;;1.40;;
27921;SDS011;15261;50.356;10.340;2022-09-09T21:15:22;1.48;;;0.90;;
27921;SDS011;15261;50.356;10.340;2022-09-09T21:17:48;2.58;;;1.33;;
27921;SDS011;15261;50.356;10.340;2022-09-09T21:20:13;1.58;;;1.20;;
27921;SDS011;15261;50.356;10.340;2022-09-09T21:22:39;2.17;;;1.20;;
27921;SDS011;15261;50.356;10.340;2022-09-09T21:25:05;2.30;;;1.20;;
27921;SDS011;15261;50.356;10.340;2022-09-09T21:27:31;1.10;;;1.00;;
27921;SDS011;15261;50.356;10.340;2022-09-09T21:29:57;2.47;;;1.30;;
27921;SDS011;15261;50.356;10.340;2022-09-09T21:32:22;3.08;;;1.17;;
27921;SDS011;15261;50.356;10.340;2022-09-09T21:41:40;1.80;;;1.10;;
27921;SDS011;15261;50.356;10.340;2022-09-09T21:44:06;2.20;;;1.02;;
27921;SDS011;15261;50.356;10.340;2022-09-09T21:46:33;1.88;;;1.08;;
27921;SDS011;15261;50.356;10.340;2022-09-09T21:48:58;0.98;;;0.88;;
27921;SDS011;15261;50.356;10.340;2022-09-09T21:51:27;0.98;;;0.82;;
27921;SDS011;15261;50.356;10.340;2022-09-09T21:53:53;3.22;;;1.10;;
27921;SDS011;15261;50.356;10.340;2022-09-09T21:56:20;2.30;;;1.30;;
27921;SDS011;15261;50.356;10.340;2022-09-09T21:58:46;2.05;;;0.90;;
27921;SDS011;15261;50.356;10.340;2022-09-09T22:01:16;2.97;;;1.02;;
27921;SDS011;15261;50.356;10.340;2022-09-09T22:03:44;4.82;;;1.20;;
27921;SDS011;15261;50.356;10.340;2022-09-09T22:06:11;2.75;;;1.17;;
27921;SDS011;15261;50.356;10.340;2022-09-09T22:08:38;1.77;;;1.02;;
27921;SDS011;15261;50.356;10.340;2022-09-09T22:11:05;2.10;;;1.10;;
27921;SDS011;15261;50.356;10.340;2022-09-09T22:16:35;2.20;;;1.00;;
27921;SDS011;15261;50.356;10.340;2022-09-09T22:19:01;3.35;;;0.90;;
27921;SDS011;15261;50.356;10.340;2022-09-09T22:21:27;1.05;;;1.05;;
27921;SDS011;15261;50.356;10.340;2022-09-09T22:23:55;1.85;;;0.90;;
27921;SDS011;15261;50.356;10.340;2022-09-09T22:29:38;1.30;;;1.02;;
27921;SDS011;15261;50.356;10.340;2022-09-09T22:32:03;4.22;;;1.15;;
27921;SDS011;15261;50.356;10.340;2022-09-09T22:34:33;2.65;;;1.35;;
27921;SDS011;15261;50.356;10.340;2022-09-09T22:37:00;5.55;;;1.25;;
27921;SDS011;15261;50.356;10.340;2022-09-09T22:39:27;2.03;;;1.20;;
27921;SDS011;15261;50.356;10.340;2022-09-09T22:41:53;1.35;;;1.10;;
27921;SDS011;15261;50.356;10.340;2022-09-09T22:44:19;1.17;;;1.00;;
27921;SDS011;15261;50.356;10.340;2022-09-09T22:46:48;2.20;;;1.10;;
27921;SDS011;15261;50.356;10.340;2022-09-09T22:49:14;1.75;;;0.98;;
27921;SDS011;15261;50.356;10.340;2022-09-09T22:51:39;1.95;;;1.13;;
27921;SDS011;15261;50.356;10.340;2022-09-09T22:54:05;4.22;;;1.50;;
27921;SDS011;15261;50.356;10.340;2022-09-09T22:56:32;2.13;;;1.20;;
27921;SDS011;15261;50.356;10.340;2022-09-09T22:58:58;2.03;;;1.20;;
27921;SDS011;15261;50.356;10.340;2022-09-09T23:01:24;4.65;;;1.30;;
27921;SDS011;15261;50.356;10.340;2022-09-09T23:03:51;1.98;;;1.23;;
27921;SDS011;15261;50.356;10.340;2022-09-09T23:06:20;3.47;;;1.30;;
27921;SDS011;15261;50.356;10.340;2022-09-09T23:08:56;1.75;;;1.10;;
27921;SDS011;15261;50.356;10.340;2022-09-09T23:11:32;3.47;;;1.25;;
27921;SDS011;15261;50.356;10.340;2022-09-09T23:14:01;3.65;;;1.20;;
27921;SDS011;15261;50.356;10.340;2022-09-09T23:19:50;1.65;;;1.40;;
27921;SDS011;15261;50.356;10.340;2022-09-09T23:22:21;2.65;;;1.10;;
27921;SDS011;15261;50.356;10.340;2022-09-09T23:24:48;3.50;;;1.20;;
27921;SDS011;15261;50.356;10.340;2022-09-09T23:27:14;1.38;;;1.27;;
27921;SDS011;15261;50.356;10.340;2022-09-09T23:29:40;1.70;;;1.27;;
27921;SDS011;15261;50.356;10.340;2022-09-09T23:32:20;2.10;;;1.17;;
27921;SDS011;15261;50.356;10.340;2022-09-09T23:38:08;1.05;;;0.90;;
27921;SDS011;15261;50.356;10.340;2022-09-09T23:40:34;2.38;;;1.20;;
27921;SDS011;15261;50.356;10.340;2022-09-09T23:46:24;1.10;;;1.10;;
27921;SDS011;15261;50.356;10.340;2022-09-09T23:48:54;1.52;;;1.15;;
27921;SDS011;15261;50.356;10.340;2022-09-09T23:51:21;2.35;;;1.30;;
27921;SDS011;15261;50.356;10.340;2022-09-09T23:53:51;2.33;;;1.15;;
27921;SDS011;15261;50.356;10.340;2022-09-09T23:56:18;2.47;;;1.25;;
27921;SDS011;15261;50.356;10.340;2022-09-09T23:58:45;1.88;;;1.10;;
